createdAt,value
2022-08-30T00:00:09.945Z,94.50
2022-08-30T00:02:37.725Z,93.20
2022-08-30T00:05:05.838Z,95.60
2022-08-30T00:07:33.706Z,92.90
2022-08-30T00:10:01.776Z,94.50
2022-08-30T00:12:32.646Z,93.10
2022-08-30T00:15:00.452Z,94.00
2022-08-30T00:17:28.163Z,93.90
2022-08-30T00:19:57.312Z,93.80
2022-08-30T00:22:25.227Z,92.90
2022-08-30T00:24:52.989Z,93.50
2022-08-30T00:27:20.684Z,93.90
2022-08-30T00:29:49.755Z,94.10
2022-08-30T00:32:18.041Z,94.20
2022-08-30T00:34:45.754Z,94.40
2022-08-30T00:37:13.504Z,94.00
2022-08-30T00:39:41.236Z,95.20
2022-08-30T00:42:09.025Z,95.10
2022-08-30T00:44:37.050Z,95.90
2022-08-30T00:47:06.362Z,94.40
2022-08-30T00:49:34.404Z,94.70
2022-08-30T00:52:02.781Z,94.40
2022-08-30T00:54:34.312Z,94.80
2022-08-30T00:57:02.033Z,94.90
2022-08-30T00:59:30.177Z,95.50
2022-08-30T01:01:57.996Z,95.00
2022-08-30T01:04:27.441Z,95.90
2022-08-30T01:06:55.674Z,95.20
2022-08-30T01:09:23.823Z,95.70
2022-08-30T01:11:51.648Z,95.80
2022-08-30T01:14:22.024Z,95.50
2022-08-30T01:16:56.075Z,95.30
2022-08-30T01:19:31.126Z,96.30
2022-08-30T01:22:03.087Z,95.30
2022-08-30T01:24:33.124Z,96.60
2022-08-30T01:27:00.866Z,95.10
2022-08-30T01:29:29.290Z,94.80
2022-08-30T01:31:57.026Z,95.30
2022-08-30T01:34:25.547Z,95.20
2022-08-30T01:36:53.242Z,95.30
2022-08-30T01:39:21.220Z,94.30
2022-08-30T01:41:50.323Z,93.80
2022-08-30T01:44:18.028Z,94.60
2022-08-30T01:46:46.625Z,94.80
2022-08-30T01:49:15.835Z,94.70
2022-08-30T01:51:43.594Z,94.80
2022-08-30T01:54:12.079Z,95.20
2022-08-30T01:56:39.808Z,96.40
2022-08-30T01:59:08.891Z,96.00
2022-08-30T02:01:39.488Z,95.50
2022-08-30T02:04:07.785Z,96.10
2022-08-30T02:06:35.650Z,95.60
2022-08-30T02:09:03.671Z,96.10
2022-08-30T02:11:31.514Z,96.30
2022-08-30T02:13:59.233Z,96.30
2022-08-30T02:16:28.392Z,95.60
2022-08-30T02:18:57.072Z,95.40
2022-08-30T02:21:25.562Z,95.20
2022-08-30T02:23:53.513Z,95.50
2022-08-30T02:26:21.568Z,95.40
2022-08-30T02:28:50.419Z,95.90
2022-08-30T02:31:19.477Z,95.30
2022-08-30T02:33:51.251Z,95.50
2022-08-30T02:36:19.168Z,96.20
2022-08-30T02:38:47.211Z,95.60
2022-08-30T02:41:15.197Z,95.40
2022-08-30T02:43:43.024Z,95.20
2022-08-30T02:46:10.815Z,94.40
2022-08-30T02:48:38.603Z,95.30
2022-08-30T02:51:09.574Z,95.00
2022-08-30T02:53:39.702Z,94.80
2022-08-30T02:56:07.697Z,95.00
2022-08-30T02:58:35.719Z,95.50
2022-08-30T03:01:03.548Z,95.40
2022-08-30T03:03:31.399Z,95.90
2022-08-30T03:05:59.317Z,96.20
2022-08-30T03:08:28.368Z,96.40
2022-08-30T03:10:56.861Z,96.50
2022-08-30T03:13:24.962Z,96.80
2022-08-30T03:15:52.755Z,97.10
2022-08-30T03:18:21.042Z,97.30
2022-08-30T03:20:54.205Z,97.80
2022-08-30T03:23:23.474Z,97.60
2022-08-30T03:25:53.416Z,98.10
2022-08-30T03:28:21.627Z,98.10
2022-08-30T03:30:49.344Z,97.90
2022-08-30T03:33:18.493Z,98.10
2022-08-30T03:35:48.041Z,98.70
2022-08-30T03:38:15.747Z,97.70
2022-08-30T03:40:43.935Z,98.20
2022-08-30T03:43:13.114Z,98.00
2022-08-30T03:45:41.200Z,97.80
2022-08-30T03:48:09.019Z,98.10
2022-08-30T03:50:36.894Z,99.00
2022-08-30T03:53:04.667Z,98.10
2022-08-30T03:55:32.433Z,98.10
2022-08-30T03:58:00.281Z,98.00
2022-08-30T04:00:29.391Z,98.30
2022-08-30T04:02:57.131Z,98.50
2022-08-30T04:05:24.849Z,99.00
2022-08-30T04:07:52.891Z,99.00
2022-08-30T04:10:21.619Z,99.30
2022-08-30T04:12:49.899Z,99.00
2022-08-30T04:15:18.342Z,99.10
2022-08-30T04:17:48.019Z,98.80
2022-08-30T04:20:15.799Z,99.10
2022-08-30T04:22:43.732Z,99.70
2022-08-30T04:25:15.435Z,99.90
2022-08-30T04:27:43.924Z,99.80
2022-08-30T04:30:12.396Z,99.90
2022-08-30T04:32:40.113Z,99.90
2022-08-30T04:35:09.814Z,99.90
2022-08-30T04:37:38.222Z,99.90
2022-08-30T04:40:06.726Z,99.90
2022-08-30T04:42:35.962Z,99.90
2022-08-30T04:45:06.037Z,99.90
2022-08-30T04:47:33.751Z,99.90
2022-08-30T04:50:01.529Z,99.90
2022-08-30T04:52:30.728Z,99.90
2022-08-30T04:54:59.548Z,99.90
2022-08-30T04:57:27.943Z,99.90
2022-08-30T04:59:56.010Z,99.90
2022-08-30T05:02:24.062Z,99.90
2022-08-30T05:05:09.533Z,99.90
2022-08-30T05:07:39.324Z,99.90
2022-08-30T05:10:11.084Z,99.90
2022-08-30T05:12:39.610Z,99.90
2022-08-30T05:15:07.780Z,99.90
2022-08-30T05:17:35.506Z,99.90
2022-08-30T05:20:03.687Z,99.90
2022-08-30T05:22:31.417Z,99.90
2022-08-30T05:25:01.015Z,99.90
2022-08-30T05:27:28.792Z,99.90
2022-08-30T05:29:56.654Z,99.90
2022-08-30T05:32:24.904Z,99.90
2022-08-30T05:34:52.630Z,99.90
2022-08-30T05:37:20.359Z,99.90
2022-08-30T05:39:51.365Z,99.90
2022-08-30T05:42:21.050Z,99.90
2022-08-30T05:44:52.055Z,99.90
2022-08-30T05:47:19.835Z,99.90
2022-08-30T05:49:47.569Z,99.90
2022-08-30T05:52:18.061Z,99.90
2022-08-30T05:54:45.860Z,99.90
2022-08-30T05:57:13.621Z,99.90
2022-08-30T05:59:42.751Z,99.90
2022-08-30T06:02:10.816Z,99.90
2022-08-30T06:04:38.570Z,99.90
2022-08-30T06:07:06.312Z,99.90
2022-08-30T06:09:34.059Z,99.90
2022-08-30T06:12:01.830Z,99.90
2022-08-30T06:14:29.589Z,99.90
2022-08-30T06:16:58.659Z,99.90
2022-08-30T06:19:26.395Z,99.90
2022-08-30T06:21:54.148Z,99.90
2022-08-30T06:24:35.718Z,99.90
2022-08-30T06:27:10.942Z,99.90
2022-08-30T06:29:38.634Z,99.90
2022-08-30T06:32:07.738Z,99.90
2022-08-30T06:34:35.458Z,99.90
2022-08-30T06:37:03.164Z,99.90
2022-08-30T06:39:30.918Z,99.90
2022-08-30T06:41:58.639Z,99.90
2022-08-30T06:44:26.350Z,99.90
2022-08-30T06:46:54.825Z,99.90
2022-08-30T06:49:23.942Z,99.90
2022-08-30T06:51:51.902Z,99.90
2022-08-30T06:54:19.638Z,99.90
2022-08-30T06:57:02.676Z,99.90
2022-08-30T06:59:31.614Z,99.90
2022-08-30T07:01:59.497Z,99.90
2022-08-30T07:04:28.720Z,99.90
2022-08-30T07:06:56.431Z,99.90
2022-08-30T07:09:24.517Z,99.90
2022-08-30T07:11:52.800Z,99.90
2022-08-30T07:14:20.607Z,99.90
2022-08-30T07:16:51.269Z,99.90
2022-08-30T07:19:20.561Z,99.90
2022-08-30T07:21:50.668Z,99.90
2022-08-30T07:24:19.122Z,99.90
2022-08-30T07:26:49.069Z,99.90
2022-08-30T07:29:16.970Z,99.90
2022-08-30T07:31:44.747Z,99.90
2022-08-30T07:34:12.556Z,99.90
2022-08-30T07:36:40.477Z,99.70
2022-08-30T07:39:09.800Z,99.40
2022-08-30T07:41:38.710Z,99.20
2022-08-30T07:44:06.944Z,99.50
2022-08-30T07:46:35.506Z,99.30
2022-08-30T07:49:04.083Z,99.50
2022-08-30T07:51:32.590Z,99.50
2022-08-30T07:54:00.406Z,98.80
2022-08-30T07:56:29.480Z,98.70
2022-08-30T07:58:57.516Z,98.00
2022-08-30T08:01:25.339Z,98.40
2022-08-30T08:03:53.093Z,98.00
2022-08-30T08:06:46.344Z,98.30
2022-08-30T08:09:14.087Z,98.80
2022-08-30T08:11:43.155Z,98.90
2022-08-30T08:14:10.963Z,98.30
2022-08-30T08:16:39.266Z,98.40
2022-08-30T08:19:09.084Z,97.00
2022-08-30T08:21:37.476Z,97.10
2022-08-30T08:24:05.542Z,97.30
2022-08-30T08:26:34.908Z,96.80
2022-08-30T08:29:04.413Z,96.60
2022-08-30T08:31:33.730Z,96.40
2022-08-30T08:34:02.893Z,96.10
2022-08-30T08:36:31.722Z,95.80
2022-08-30T08:38:59.517Z,95.70
2022-08-30T08:41:32.802Z,95.30
2022-08-30T08:44:00.668Z,95.20
2022-08-30T08:46:31.873Z,95.40
2022-08-30T08:49:03.080Z,95.20
2022-08-30T08:51:50.465Z,94.90
2022-08-30T08:54:22.279Z,94.70
2022-08-30T08:56:49.995Z,94.60
2022-08-30T08:59:18.516Z,94.60
2022-08-30T09:01:48.181Z,94.60
2022-08-30T09:04:20.593Z,94.30
2022-08-30T09:06:53.998Z,93.70
2022-08-30T09:09:23.004Z,94.00
2022-08-30T09:11:50.793Z,93.70
2022-08-30T09:14:20.636Z,93.30
2022-08-30T09:16:51.434Z,93.50
2022-08-30T09:19:30.562Z,93.20
2022-08-30T09:22:03.441Z,93.10
2022-08-30T09:24:38.106Z,92.60
2022-08-30T09:27:23.783Z,92.80
2022-08-30T09:30:02.968Z,92.60
2022-08-30T09:32:33.930Z,92.10
2022-08-30T09:35:01.863Z,92.40
2022-08-30T09:37:31.594Z,92.40
2022-08-30T09:40:00.689Z,92.20
2022-08-30T09:42:29.363Z,92.40
2022-08-30T09:45:10.312Z,91.90
2022-08-30T09:47:41.902Z,91.60
2022-08-30T09:50:11.916Z,91.50
2022-08-30T09:52:43.320Z,91.80
2022-08-30T09:55:16.345Z,91.20
2022-08-30T09:57:46.313Z,90.80
2022-08-30T10:00:16.324Z,91.00
2022-08-30T10:02:49.274Z,90.60
2022-08-30T10:05:21.540Z,89.70
2022-08-30T10:07:53.709Z,89.40
2022-08-30T10:10:25.885Z,89.90
2022-08-30T10:13:01.166Z,87.70
2022-08-30T10:15:32.242Z,87.90
2022-08-30T10:18:04.646Z,85.80
2022-08-30T10:20:34.576Z,86.70
2022-08-30T10:23:06.182Z,86.00
2022-08-30T10:25:36.192Z,83.40
2022-08-30T10:28:05.811Z,84.60
2022-08-30T10:30:35.410Z,84.30
2022-08-30T10:33:07.125Z,83.80
2022-08-30T10:35:39.060Z,84.30
2022-08-30T10:38:09.132Z,82.50
2022-08-30T10:40:55.688Z,82.40
2022-08-30T10:43:25.740Z,84.10
2022-08-30T10:45:56.178Z,83.70
2022-08-30T10:48:28.170Z,83.50
2022-08-30T10:50:57.698Z,82.20
2022-08-30T10:53:29.297Z,83.00
2022-08-30T10:56:01.737Z,82.50
2022-08-30T10:58:31.336Z,82.10
2022-08-30T11:01:06.312Z,80.10
2022-08-30T11:03:49.827Z,80.40
2022-08-30T11:06:20.981Z,80.40
2022-08-30T11:08:58.771Z,79.80
2022-08-30T11:11:31.138Z,79.40
2022-08-30T11:14:05.728Z,77.50
2022-08-30T11:16:37.884Z,79.10
2022-08-30T11:19:14.561Z,78.50
2022-08-30T11:21:44.213Z,79.50
2022-08-30T11:24:13.162Z,77.80
2022-08-30T11:27:12.709Z,77.20
2022-08-30T11:29:42.119Z,77.80
2022-08-30T11:32:24.116Z,76.30
2022-08-30T11:35:00.827Z,76.20
2022-08-30T11:37:33.743Z,76.10
2022-08-30T11:40:03.881Z,75.00
2022-08-30T11:42:33.900Z,73.00
2022-08-30T11:45:20.779Z,74.00
2022-08-30T11:47:50.829Z,73.00
2022-08-30T11:50:21.426Z,72.90
2022-08-30T11:52:54.969Z,72.20
2022-08-30T11:55:43.624Z,73.90
2022-08-30T11:58:18.032Z,73.40
2022-08-30T12:00:51.454Z,72.40
2022-08-30T12:03:29.592Z,73.00
2022-08-30T12:06:01.618Z,72.50
2022-08-30T12:08:48.191Z,72.00
2022-08-30T12:11:34.510Z,71.70
2022-08-30T12:14:02.758Z,71.80
2022-08-30T12:16:36.589Z,71.30
2022-08-30T12:19:11.263Z,70.20
2022-08-30T12:21:44.741Z,70.90
2022-08-30T12:24:18.621Z,69.70
2022-08-30T12:26:47.536Z,70.50
2022-08-30T12:29:17.210Z,69.70
2022-08-30T12:31:47.577Z,69.20
2022-08-30T12:34:26.281Z,68.80
2022-08-30T12:36:58.516Z,68.30
2022-08-30T12:39:27.539Z,68.80
2022-08-30T12:41:55.354Z,68.70
2022-08-30T12:44:24.849Z,68.50
2022-08-30T12:46:58.940Z,67.40
2022-08-30T12:49:28.990Z,67.20
2022-08-30T12:52:16.066Z,66.60
2022-08-30T12:54:44.495Z,66.70
2022-08-30T12:57:32.416Z,66.60
2022-08-30T13:00:02.040Z,66.40
2022-08-30T13:02:42.964Z,65.00
2022-08-30T13:05:25.611Z,64.70
2022-08-30T13:08:08.454Z,64.50
2022-08-30T13:10:36.291Z,64.40
2022-08-30T13:13:05.523Z,65.00
2022-08-30T13:15:34.531Z,63.80
2022-08-30T13:18:18.202Z,63.20
2022-08-30T13:21:09.468Z,62.40
2022-08-30T13:23:38.554Z,61.70
2022-08-30T13:26:07.535Z,62.60
2022-08-30T13:28:43.624Z,62.10
2022-08-30T13:31:16.519Z,62.00
2022-08-30T13:33:46.032Z,61.80
2022-08-30T13:36:14.515Z,62.70
2022-08-30T13:38:49.678Z,61.80
2022-08-30T13:41:17.630Z,61.50
2022-08-30T13:46:33.883Z,62.50
2022-08-30T13:49:04.729Z,61.30
2022-08-30T13:51:32.718Z,60.70
2022-08-30T13:54:02.460Z,61.70
2022-08-30T13:56:32.042Z,61.20
2022-08-30T13:58:59.787Z,60.50
2022-08-30T14:01:30.628Z,60.30
2022-08-30T14:04:18.337Z,59.90
2022-08-30T14:09:35.760Z,59.70
2022-08-30T14:12:03.668Z,58.90
2022-08-30T14:14:42.541Z,58.70
2022-08-30T14:17:12.432Z,58.90
2022-08-30T14:19:40.467Z,59.60
2022-08-30T14:22:08.177Z,59.80
2022-08-30T14:24:37.571Z,60.80
2022-08-30T14:27:05.344Z,61.10
2022-08-30T14:29:33.060Z,60.90
2022-08-30T14:32:03.194Z,61.40
2022-08-30T14:34:30.987Z,61.20
2022-08-30T14:37:00.776Z,61.40
2022-08-30T14:39:28.593Z,60.70
2022-08-30T14:41:57.633Z,62.70
2022-08-30T14:44:45.682Z,60.80
2022-08-30T14:47:19.038Z,61.10
2022-08-30T14:49:46.877Z,60.60
2022-08-30T14:52:14.698Z,60.50
2022-08-30T14:54:42.497Z,61.50
2022-08-30T14:57:11.665Z,61.30
2022-08-30T14:59:39.379Z,61.70
2022-08-30T15:02:07.435Z,60.60
2022-08-30T15:04:35.358Z,60.20
2022-08-30T15:07:03.251Z,60.00
2022-08-30T15:09:32.700Z,59.80
2022-08-30T15:12:03.448Z,59.40
2022-08-30T15:14:32.646Z,59.70
2022-08-30T15:17:02.643Z,58.60
2022-08-30T15:19:31.043Z,59.30
2022-08-30T15:22:00.147Z,59.30
2022-08-30T15:24:29.941Z,61.30
2022-08-30T15:26:59.603Z,60.40
2022-08-30T15:29:27.785Z,60.50
2022-08-30T15:32:00.415Z,60.40
2022-08-30T15:34:28.700Z,60.70
2022-08-30T15:36:56.748Z,60.20
2022-08-30T15:39:24.885Z,59.30
2022-08-30T15:41:56.051Z,58.70
2022-08-30T15:44:27.651Z,59.50
2022-08-30T15:46:55.571Z,60.00
2022-08-30T15:49:24.873Z,60.90
2022-08-30T15:51:54.030Z,61.00
2022-08-30T15:54:23.118Z,61.60
2022-08-30T15:56:58.772Z,61.80
2022-08-30T15:59:26.727Z,62.70
2022-08-30T16:01:54.460Z,63.00
2022-08-30T16:04:23.012Z,63.50
2022-08-30T16:06:52.075Z,63.70
2022-08-30T16:09:20.360Z,63.70
2022-08-30T16:11:48.898Z,64.00
2022-08-30T16:14:16.834Z,64.60
2022-08-30T16:16:46.192Z,64.20
2022-08-30T16:19:13.931Z,64.20
2022-08-30T16:21:42.738Z,64.60
2022-08-30T16:24:13.905Z,64.40
2022-08-30T16:26:42.446Z,65.00
2022-08-30T16:29:10.531Z,64.90
2022-08-30T16:31:38.870Z,65.00
2022-08-30T16:34:07.043Z,65.30
2022-08-30T16:36:35.946Z,65.40
2022-08-30T16:39:04.223Z,65.80
2022-08-30T16:41:37.957Z,66.10
2022-08-30T16:44:06.786Z,66.90
2022-08-30T16:46:36.617Z,67.30
2022-08-30T16:49:05.372Z,67.20
2022-08-30T16:51:35.130Z,67.70
2022-08-30T16:54:04.044Z,68.10
2022-08-30T16:56:33.180Z,68.00
2022-08-30T16:59:03.251Z,68.70
2022-08-30T17:01:34.989Z,68.70
2022-08-30T17:04:03.634Z,69.20
2022-08-30T17:06:32.153Z,68.60
2022-08-30T17:08:59.999Z,68.60
2022-08-30T17:11:28.012Z,69.20
2022-08-30T17:13:55.889Z,68.60
2022-08-30T17:16:27.425Z,68.90
2022-08-30T17:18:55.943Z,69.00
2022-08-30T17:21:27.469Z,68.80
2022-08-30T17:24:01.451Z,68.90
2022-08-30T17:26:30.071Z,68.70
2022-08-30T17:28:57.872Z,69.10
2022-08-30T17:31:29.096Z,68.50
2022-08-30T17:34:01.182Z,68.80
2022-08-30T17:36:31.483Z,68.90
2022-08-30T17:38:59.208Z,69.30
2022-08-30T17:41:26.905Z,69.70
2022-08-30T17:43:54.974Z,70.00
2022-08-30T17:46:22.809Z,70.20
2022-08-30T17:48:56.575Z,70.20
2022-08-30T17:51:29.389Z,70.40
2022-08-30T17:53:57.863Z,70.40
2022-08-30T17:56:34.229Z,70.80
2022-08-30T17:59:05.571Z,70.80
2022-08-30T18:01:33.332Z,71.10
2022-08-30T18:04:05.880Z,71.20
2022-08-30T18:06:34.227Z,71.40
2022-08-30T18:09:01.983Z,71.60
2022-08-30T18:11:29.799Z,71.80
2022-08-30T18:13:57.556Z,72.00
2022-08-30T18:16:26.679Z,72.30
2022-08-30T18:18:57.320Z,72.30
2022-08-30T18:21:28.354Z,72.90
2022-08-30T18:23:57.259Z,73.00
2022-08-30T18:26:27.531Z,73.00
2022-08-30T18:28:56.072Z,73.10
2022-08-30T18:31:23.830Z,73.40
2022-08-30T18:33:51.589Z,73.50
2022-08-30T18:36:19.472Z,73.80
2022-08-30T18:38:48.575Z,73.90
2022-08-30T18:41:16.573Z,74.60
2022-08-30T18:43:44.753Z,74.80
2022-08-30T18:46:14.320Z,75.30
2022-08-30T18:48:42.398Z,75.60
2022-08-30T18:51:11.156Z,75.80
2022-08-30T18:53:39.310Z,76.50
2022-08-30T18:56:10.045Z,76.50
2022-08-30T18:58:40.201Z,76.80
2022-08-30T19:01:12.720Z,77.30
2022-08-30T19:03:41.815Z,77.40
2022-08-30T19:06:12.289Z,77.60
2022-08-30T19:08:41.232Z,77.70
2022-08-30T19:11:14.915Z,78.00
2022-08-30T19:13:42.658Z,78.40
2022-08-30T19:18:58.426Z,78.80
2022-08-30T19:21:26.205Z,79.20
2022-08-30T19:23:55.153Z,80.00
2022-08-30T19:26:24.407Z,79.60
2022-08-30T19:28:55.386Z,79.90
2022-08-30T19:31:23.129Z,79.90
2022-08-30T19:33:50.914Z,80.20
2022-08-30T19:36:18.607Z,80.50
2022-08-30T19:38:46.327Z,80.80
2022-08-30T19:41:14.047Z,80.80
2022-08-30T19:43:43.066Z,81.30
2022-08-30T19:46:11.003Z,81.70
2022-08-30T19:48:42.953Z,81.70
2022-08-30T19:51:11.562Z,82.10
2022-08-30T19:53:42.204Z,82.50
2022-08-30T19:56:09.985Z,82.50
2022-08-30T19:58:37.768Z,82.60
2022-08-30T20:01:10.871Z,82.90
2022-08-30T20:03:40.473Z,83.10
2022-08-30T20:06:08.857Z,83.40
2022-08-30T20:08:37.156Z,83.40
2022-08-30T20:11:05.194Z,83.70
2022-08-30T20:13:33.844Z,84.20
2022-08-30T20:16:02.320Z,84.30
2022-08-30T20:18:31.423Z,84.50
2022-08-30T20:20:59.155Z,84.70
2022-08-30T20:23:28.334Z,85.00
2022-08-30T20:24:32.308Z,78.50
2022-08-30T20:25:56.808Z,85.30
2022-08-30T20:28:25.308Z,85.50
2022-08-30T20:30:55.634Z,85.80
2022-08-30T20:33:25.232Z,86.20
2022-08-30T20:35:54.290Z,86.40
2022-08-30T20:38:22.424Z,86.60
2022-08-30T20:40:51.221Z,86.70
2022-08-30T20:43:19.322Z,86.80
2022-08-30T20:45:47.175Z,86.80
2022-08-30T20:48:15.045Z,86.80
2022-08-30T20:50:43.036Z,86.80
2022-08-30T20:53:12.603Z,86.90
2022-08-30T20:55:41.307Z,86.90
2022-08-30T20:58:09.531Z,86.80
2022-08-30T21:00:37.539Z,87.30
2022-08-30T21:03:08.348Z,86.90
2022-08-30T21:05:55.082Z,87.10
2022-08-30T21:08:25.209Z,87.10
2022-08-30T21:10:52.966Z,87.30
2022-08-30T21:13:20.844Z,87.30
2022-08-30T21:15:51.523Z,87.40
2022-08-30T21:18:19.485Z,87.50
2022-08-30T21:20:47.330Z,87.50
2022-08-30T21:23:15.100Z,87.50
2022-08-30T21:25:44.583Z,87.80
2022-08-30T21:28:12.318Z,87.90
2022-08-30T21:30:40.130Z,88.00
2022-08-30T21:33:08.727Z,88.20
2022-08-30T21:35:55.282Z,88.30
2022-08-30T21:38:24.561Z,88.40
2022-08-30T21:40:53.665Z,88.60
2022-08-30T21:43:21.449Z,88.70
2022-08-30T21:45:51.155Z,89.00
2022-08-30T21:48:19.050Z,89.20
2022-08-30T21:50:46.962Z,89.30
2022-08-30T21:53:15.403Z,89.20
2022-08-30T21:55:45.628Z,89.40
2022-08-30T21:58:17.346Z,89.70
2022-08-30T22:00:45.064Z,89.70
2022-08-30T22:03:12.870Z,89.70
2022-08-30T22:05:40.829Z,90.00
2022-08-30T22:08:08.522Z,90.10
2022-08-30T22:10:36.504Z,90.10
2022-08-30T22:13:04.498Z,90.20
2022-08-30T22:15:33.567Z,90.30
2022-08-30T22:18:01.623Z,90.30
2022-08-30T22:20:30.575Z,90.40
2022-08-30T22:22:58.450Z,90.40
2022-08-30T22:25:26.495Z,90.40
2022-08-30T22:27:54.460Z,90.50
2022-08-30T22:30:22.181Z,90.60
2022-08-30T22:32:51.419Z,90.70
2022-08-30T22:35:20.495Z,90.80
2022-08-30T22:37:53.240Z,90.90
2022-08-30T22:40:21.815Z,90.90
2022-08-30T22:42:49.591Z,91.00
2022-08-30T22:45:17.547Z,91.10
2022-08-30T22:47:45.265Z,91.10
2022-08-30T22:50:14.368Z,91.30
2022-08-30T22:52:42.095Z,91.30
2022-08-30T22:55:10.207Z,91.50
2022-08-30T22:57:38.389Z,91.40
2022-08-30T23:00:07.550Z,91.50
2022-08-30T23:02:36.423Z,91.60
2022-08-30T23:05:04.751Z,91.80
2022-08-30T23:07:33.859Z,91.90
2022-08-30T23:10:01.731Z,91.90
2022-08-30T23:12:29.663Z,92.30
2022-08-30T23:14:57.426Z,92.20
2022-08-30T23:17:25.413Z,92.30
2022-08-30T23:19:59.130Z,92.30
2022-08-30T23:22:26.879Z,92.40
2022-08-30T23:25:15.813Z,92.50
2022-08-30T23:28:01.995Z,92.50
2022-08-30T23:30:47.569Z,92.50
2022-08-30T23:33:32.755Z,92.60
2022-08-30T23:36:17.943Z,92.70
2022-08-30T23:39:02.954Z,92.90
2022-08-30T23:41:51.022Z,93.00
2022-08-30T23:44:36.247Z,93.00
2022-08-30T23:47:21.339Z,93.10
2022-08-30T23:50:06.494Z,93.30
2022-08-30T23:52:51.604Z,93.40
2022-08-30T23:55:37.446Z,93.40
2022-08-30T23:58:23.951Z,93.50
